sensor_id;sensor_type;location;lat;lon;timestamp;noise_LAeq;noise_LA_min;noise_LA_max;noise_LA01;noise_LA95
72028;Laerm;59781;52.090;5.030;2022-08-30T00:01:09;40.13;37.44;47.42;;
72028;Laerm;59781;52.090;5.030;2022-08-30T00:03:40;40.21;37.53;43.91;;
72028;Laerm;59781;52.090;5.030;2022-08-30T00:06:09;39.89;37.28;44.85;;
72028;Laerm;59781;52.090;5.030;2022-08-30T00:08:36;40.19;37.70;47.51;;
72028;Laerm;59781;52.090;5.030;2022-08-30T00:11:06;40.01;37.11;43.24;;
72028;Laerm;59781;52.090;5.030;2022-08-30T00:13:40;39.71;37.16;42.68;;
72028;Laerm;59781;52.090;5.030;2022-08-30T00:16:06;39.76;37.30;44.13;;
72028;Laerm;59781;52.090;5.030;2022-08-30T00:18:35;39.45;36.93;43.14;;
72028;Laerm;59781;52.090;5.030;2022-08-30T00:21:02;39.91;36.94;42.90;;
72028;Laerm;59781;52.090;5.030;2022-08-30T00:23:28;41.52;36.90;50.88;;
72028;Laerm;59781;52.090;5.030;2022-08-30T00:25:54;39.82;37.03;43.60;;
72028;Laerm;59781;52.090;5.030;2022-08-30T00:28:23;40.60;37.38;55.61;;
72028;Laerm;59781;52.090;5.030;2022-08-30T00:30:49;40.21;37.78;48.82;;
72028;Laerm;59781;52.090;5.030;2022-08-30T00:33:15;40.46;37.58;45.71;;
72028;Laerm;59781;52.090;5.030;2022-08-30T00:35:41;40.34;37.46;45.19;;
72028;Laerm;59781;52.090;5.030;2022-08-30T00:38:11;40.05;37.30;44.87;;
72028;Laerm;59781;52.090;5.030;2022-08-30T00:40:40;40.15;37.37;44.24;;
72028;Laerm;59781;52.090;5.030;2022-08-30T00:43:15;40.34;37.65;44.88;;
72028;Laerm;59781;52.090;5.030;2022-08-30T00:45:42;39.92;37.10;42.95;;
72028;Laerm;59781;52.090;5.030;2022-08-30T00:48:08;39.56;37.06;45.71;;
72028;Laerm;59781;52.090;5.030;2022-08-30T00:50:50;39.91;37.03;60.77;;
72028;Laerm;59781;52.090;5.030;2022-08-30T00:53:29;41.13;37.27;56.52;;
72028;Laerm;59781;52.090;5.030;2022-08-30T00:55:58;40.22;37.54;43.14;;
72028;Laerm;59781;52.090;5.030;2022-08-30T00:58:33;40.18;36.99;51.28;;
72028;Laerm;59781;52.090;5.030;2022-08-30T01:01:03;39.87;37.02;55.16;;
72028;Laerm;59781;52.090;5.030;2022-08-30T01:03:30;39.67;37.12;42.72;;
72028;Laerm;59781;52.090;5.030;2022-08-30T01:05:58;39.84;37.09;43.26;;
72028;Laerm;59781;52.090;5.030;2022-08-30T01:08:24;39.69;37.49;44.94;;
72028;Laerm;59781;52.090;5.030;2022-08-30T01:10:52;39.70;37.22;51.55;;
72028;Laerm;59781;52.090;5.030;2022-08-30T01:13:22;39.70;37.12;47.34;;
72028;Laerm;59781;52.090;5.030;2022-08-30T01:15:50;40.14;36.73;44.20;;
72028;Laerm;59781;52.090;5.030;2022-08-30T01:18:18;39.45;37.09;43.52;;
72028;Laerm;59781;52.090;5.030;2022-08-30T01:21:06;40.12;37.29;44.49;;
72028;Laerm;59781;52.090;5.030;2022-08-30T01:23:40;39.77;36.77;46.17;;
72028;Laerm;59781;52.090;5.030;2022-08-30T01:26:09;40.05;37.50;45.18;;
72028;Laerm;59781;52.090;5.030;2022-08-30T01:28:38;39.98;36.94;44.33;;
72028;Laerm;59781;52.090;5.030;2022-08-30T01:31:04;39.49;36.79;45.08;;
72028;Laerm;59781;52.090;5.030;2022-08-30T01:33:30;39.51;36.59;42.82;;
72028;Laerm;59781;52.090;5.030;2022-08-30T01:36:01;39.63;37.18;45.39;;
72028;Laerm;59781;52.090;5.030;2022-08-30T01:38:53;39.58;37.33;42.93;;
72028;Laerm;59781;52.090;5.030;2022-08-30T01:41:37;39.40;36.77;42.99;;
72028;Laerm;59781;52.090;5.030;2022-08-30T01:44:07;39.47;36.91;46.07;;
72028;Laerm;59781;52.090;5.030;2022-08-30T01:46:38;39.54;37.09;43.05;;
72028;Laerm;59781;52.090;5.030;2022-08-30T01:49:10;39.68;37.19;42.42;;
72028;Laerm;59781;52.090;5.030;2022-08-30T01:51:37;39.40;36.74;43.63;;
72028;Laerm;59781;52.090;5.030;2022-08-30T01:54:04;39.73;37.07;43.26;;
72028;Laerm;59781;52.090;5.030;2022-08-30T01:56:30;39.85;37.15;43.53;;
72028;Laerm;59781;52.090;5.030;2022-08-30T01:58:56;40.06;37.27;46.99;;
72028;Laerm;59781;52.090;5.030;2022-08-30T02:01:27;39.76;37.06;42.77;;
72028;Laerm;59781;52.090;5.030;2022-08-30T02:03:55;39.79;37.17;44.26;;
72028;Laerm;59781;52.090;5.030;2022-08-30T02:06:22;39.88;37.06;43.06;;
72028;Laerm;59781;52.090;5.030;2022-08-30T02:08:48;40.01;37.13;44.08;;
72028;Laerm;59781;52.090;5.030;2022-08-30T02:11:16;40.09;37.17;43.32;;
72028;Laerm;59781;52.090;5.030;2022-08-30T02:13:43;40.05;37.52;43.68;;
72028;Laerm;59781;52.090;5.030;2022-08-30T02:16:14;40.24;37.59;44.16;;
72028;Laerm;59781;52.090;5.030;2022-08-30T02:18:41;40.11;37.67;47.15;;
72028;Laerm;59781;52.090;5.030;2022-08-30T02:21:08;40.40;37.09;55.83;;
72028;Laerm;59781;52.090;5.030;2022-08-30T02:23:35;42.38;37.72;51.12;;
72028;Laerm;59781;52.090;5.030;2022-08-30T02:26:02;39.83;36.93;45.59;;
72028;Laerm;59781;52.090;5.030;2022-08-30T02:28:28;39.68;36.97;43.10;;
72028;Laerm;59781;52.090;5.030;2022-08-30T02:30:54;40.07;37.11;43.94;;
72028;Laerm;59781;52.090;5.030;2022-08-30T02:33:20;40.39;37.84;45.64;;
72028;Laerm;59781;52.090;5.030;2022-08-30T02:35:46;40.12;37.59;43.61;;
72028;Laerm;59781;52.090;5.030;2022-08-30T02:38:12;40.65;38.23;44.54;;
72028;Laerm;59781;52.090;5.030;2022-08-30T02:40:38;40.56;37.32;47.70;;
72028;Laerm;59781;52.090;5.030;2022-08-30T02:43:04;40.30;37.57;43.82;;
72028;Laerm;59781;52.090;5.030;2022-08-30T02:45:30;40.00;37.05;44.61;;
72028;Laerm;59781;52.090;5.030;2022-08-30T02:47:56;40.36;37.27;44.23;;
72028;Laerm;59781;52.090;5.030;2022-08-30T02:50:23;40.16;37.37;42.69;;
72028;Laerm;59781;52.090;5.030;2022-08-30T02:52:49;40.26;38.11;43.34;;
72028;Laerm;59781;52.090;5.030;2022-08-30T02:55:16;40.65;38.02;43.62;;
72028;Laerm;59781;52.090;5.030;2022-08-30T02:57:42;40.10;37.71;43.59;;
72028;Laerm;59781;52.090;5.030;2022-08-30T03:00:13;40.51;37.68;45.90;;
72028;Laerm;59781;52.090;5.030;2022-08-30T03:02:41;40.76;37.92;44.03;;
72028;Laerm;59781;52.090;5.030;2022-08-30T03:05:09;40.89;37.85;44.30;;
72028;Laerm;59781;52.090;5.030;2022-08-30T03:07:35;41.37;38.34;62.83;;
72028;Laerm;59781;52.090;5.030;2022-08-30T03:10:01;40.95;38.50;43.95;;
72028;Laerm;59781;52.090;5.030;2022-08-30T03:12:26;40.89;38.17;46.74;;
72028;Laerm;59781;52.090;5.030;2022-08-30T03:14:52;40.84;38.14;44.13;;
72028;Laerm;59781;52.090;5.030;2022-08-30T03:17:18;41.33;37.92;46.38;;
72028;Laerm;59781;52.090;5.030;2022-08-30T03:19:44;41.00;38.31;43.53;;
72028;Laerm;59781;52.090;5.030;2022-08-30T03:22:11;42.00;38.94;46.65;;
72028;Laerm;59781;52.090;5.030;2022-08-30T03:24:37;41.97;38.98;46.01;;
72028;Laerm;59781;52.090;5.030;2022-08-30T03:27:03;41.50;38.60;44.02;;
72028;Laerm;59781;52.090;5.030;2022-08-30T03:29:29;41.60;38.74;46.58;;
72028;Laerm;59781;52.090;5.030;2022-08-30T03:31:56;41.90;38.89;45.34;;
72028;Laerm;59781;52.090;5.030;2022-08-30T03:34:24;42.42;39.58;47.07;;
72028;Laerm;59781;52.090;5.030;2022-08-30T03:36:53;42.32;39.21;45.93;;
72028;Laerm;59781;52.090;5.030;2022-08-30T03:39:21;42.69;40.09;47.18;;
72028;Laerm;59781;52.090;5.030;2022-08-30T03:41:48;42.88;39.40;46.94;;
72028;Laerm;59781;52.090;5.030;2022-08-30T03:44:13;42.96;39.91;46.39;;
72028;Laerm;59781;52.090;5.030;2022-08-30T03:46:39;43.65;40.30;48.48;;
72028;Laerm;59781;52.090;5.030;2022-08-30T03:49:06;43.68;40.28;46.94;;
72028;Laerm;59781;52.090;5.030;2022-08-30T03:51:32;44.61;40.90;48.74;;
72028;Laerm;59781;52.090;5.030;2022-08-30T03:53:59;44.37;40.78;48.23;;
72028;Laerm;59781;52.090;5.030;2022-08-30T03:56:25;44.19;40.81;48.97;;
72028;Laerm;59781;52.090;5.030;2022-08-30T03:58:51;44.36;41.33;52.46;;
72028;Laerm;59781;52.090;5.030;2022-08-30T04:01:17;44.07;40.41;47.53;;
72028;Laerm;59781;52.090;5.030;2022-08-30T04:03:42;44.38;41.03;49.62;;
72028;Laerm;59781;52.090;5.030;2022-08-30T04:06:08;44.41;41.27;48.81;;
72028;Laerm;59781;52.090;5.030;2022-08-30T04:08:34;44.37;41.06;60.41;;
72028;Laerm;59781;52.090;5.030;2022-08-30T04:11:00;45.07;41.37;48.47;;
72028;Laerm;59781;52.090;5.030;2022-08-30T04:13:27;45.18;41.57;49.54;;
72028;Laerm;59781;52.090;5.030;2022-08-30T04:15:53;45.65;41.39;49.42;;
72028;Laerm;59781;52.090;5.030;2022-08-30T04:18:20;46.22;43.09;50.14;;
72028;Laerm;59781;52.090;5.030;2022-08-30T04:20:46;45.77;42.43;49.47;;
72028;Laerm;59781;52.090;5.030;2022-08-30T04:23:13;46.29;42.51;50.27;;
72028;Laerm;59781;52.090;5.030;2022-08-30T04:25:40;46.49;43.01;54.89;;
72028;Laerm;59781;52.090;5.030;2022-08-30T04:28:07;47.67;42.79;54.07;;
72028;Laerm;59781;52.090;5.030;2022-08-30T04:30:33;46.26;42.51;50.60;;
72028;Laerm;59781;52.090;5.030;2022-08-30T04:33:02;46.01;42.17;49.54;;
72028;Laerm;59781;52.090;5.030;2022-08-30T04:35:28;46.65;42.73;61.60;;
72028;Laerm;59781;52.090;5.030;2022-08-30T04:37:53;45.44;41.81;49.58;;
72028;Laerm;59781;52.090;5.030;2022-08-30T04:40:19;46.19;42.40;62.97;;
72028;Laerm;59781;52.090;5.030;2022-08-30T04:42:45;47.86;42.63;65.05;;
72028;Laerm;59781;52.090;5.030;2022-08-30T04:45:15;45.38;41.36;54.30;;
72028;Laerm;59781;52.090;5.030;2022-08-30T04:47:42;45.39;41.99;49.98;;
72028;Laerm;59781;52.090;5.030;2022-08-30T04:50:11;45.33;41.87;58.27;;
72028;Laerm;59781;52.090;5.030;2022-08-30T04:52:38;45.40;41.91;50.95;;
72028;Laerm;59781;52.090;5.030;2022-08-30T04:55:06;44.90;41.86;48.38;;
72028;Laerm;59781;52.090;5.030;2022-08-30T04:57:33;45.09;41.88;50.55;;
72028;Laerm;59781;52.090;5.030;2022-08-30T04:59:59;44.77;41.19;55.73;;
72028;Laerm;59781;52.090;5.030;2022-08-30T05:02:26;44.94;41.34;48.84;;
72028;Laerm;59781;52.090;5.030;2022-08-30T05:04:51;44.77;41.49;51.88;;
72028;Laerm;59781;52.090;5.030;2022-08-30T05:07:36;45.35;41.84;52.98;;
72028;Laerm;59781;52.090;5.030;2022-08-30T05:10:04;46.38;41.91;65.56;;
72028;Laerm;59781;52.090;5.030;2022-08-30T05:12:29;46.18;42.39;59.02;;
72028;Laerm;59781;52.090;5.030;2022-08-30T05:14:55;46.05;42.91;56.06;;
72028;Laerm;59781;52.090;5.030;2022-08-30T05:17:24;46.95;42.97;53.22;;
72028;Laerm;59781;52.090;5.030;2022-08-30T05:19:50;46.36;42.57;53.02;;
72028;Laerm;59781;52.090;5.030;2022-08-30T05:22:16;46.56;42.89;58.88;;
72028;Laerm;59781;52.090;5.030;2022-08-30T05:24:42;46.88;43.40;60.69;;
72028;Laerm;59781;52.090;5.030;2022-08-30T05:27:08;48.34;43.09;72.96;;
72028;Laerm;59781;52.090;5.030;2022-08-30T05:29:34;47.83;42.88;71.56;;
72028;Laerm;59781;52.090;5.030;2022-08-30T05:32:00;46.51;43.18;55.24;;
72028;Laerm;59781;52.090;5.030;2022-08-30T05:34:28;46.72;43.12;54.40;;
72028;Laerm;59781;52.090;5.030;2022-08-30T05:36:54;46.82;43.15;56.16;;
72028;Laerm;59781;52.090;5.030;2022-08-30T05:39:20;46.90;43.43;54.00;;
72028;Laerm;59781;52.090;5.030;2022-08-30T05:41:47;47.06;42.97;62.85;;
72028;Laerm;59781;52.090;5.030;2022-08-30T05:44:12;46.83;43.05;61.75;;
72028;Laerm;59781;52.090;5.030;2022-08-30T05:46:38;46.95;43.70;63.66;;
72028;Laerm;59781;52.090;5.030;2022-08-30T05:49:10;46.43;42.99;52.99;;
72028;Laerm;59781;52.090;5.030;2022-08-30T05:51:37;46.77;43.19;59.06;;
72028;Laerm;59781;52.090;5.030;2022-08-30T05:54:03;46.60;42.54;51.48;;
72028;Laerm;59781;52.090;5.030;2022-08-30T05:56:35;46.66;42.97;52.43;;
72028;Laerm;59781;52.090;5.030;2022-08-30T05:59:04;46.50;43.10;58.26;;
72028;Laerm;59781;52.090;5.030;2022-08-30T06:01:36;47.09;43.47;54.56;;
72028;Laerm;59781;52.090;5.030;2022-08-30T06:04:06;47.12;43.26;59.26;;
72028;Laerm;59781;52.090;5.030;2022-08-30T06:06:35;46.91;43.53;62.22;;
72028;Laerm;59781;52.090;5.030;2022-08-30T06:09:04;46.83;42.74;66.15;;
72028;Laerm;59781;52.090;5.030;2022-08-30T06:11:31;46.79;42.78;61.53;;
72028;Laerm;59781;52.090;5.030;2022-08-30T06:13:57;49.04;43.49;73.78;;
72028;Laerm;59781;52.090;5.030;2022-08-30T06:16:26;46.65;43.04;53.13;;
72028;Laerm;59781;52.090;5.030;2022-08-30T06:18:53;46.57;43.03;60.24;;
72028;Laerm;59781;52.090;5.030;2022-08-30T06:21:27;46.63;43.60;54.72;;
72028;Laerm;59781;52.090;5.030;2022-08-30T06:23:54;46.83;42.37;53.27;;
72028;Laerm;59781;52.090;5.030;2022-08-30T06:26:21;46.65;43.07;58.02;;
72028;Laerm;59781;52.090;5.030;2022-08-30T06:28:47;45.97;42.59;61.01;;
72028;Laerm;59781;52.090;5.030;2022-08-30T06:31:16;46.64;43.33;61.08;;
72028;Laerm;59781;52.090;5.030;2022-08-30T06:33:43;46.43;42.56;63.12;;
72028;Laerm;59781;52.090;5.030;2022-08-30T06:36:16;45.86;42.47;54.27;;
72028;Laerm;59781;52.090;5.030;2022-08-30T06:38:45;45.88;42.50;54.76;;
72028;Laerm;59781;52.090;5.030;2022-08-30T06:41:15;45.95;41.91;56.00;;
72028;Laerm;59781;52.090;5.030;2022-08-30T06:43:42;46.45;42.62;58.39;;
72028;Laerm;59781;52.090;5.030;2022-08-30T06:46:15;47.05;42.59;62.67;;
72028;Laerm;59781;52.090;5.030;2022-08-30T06:48:41;46.95;42.58;60.81;;
72028;Laerm;59781;52.090;5.030;2022-08-30T06:51:07;49.84;42.43;70.83;;
72028;Laerm;59781;52.090;5.030;2022-08-30T06:53:34;46.08;42.14;64.89;;
72028;Laerm;59781;52.090;5.030;2022-08-30T06:56:08;45.68;42.61;63.88;;
72028;Laerm;59781;52.090;5.030;2022-08-30T06:58:36;45.70;42.44;60.04;;
72028;Laerm;59781;52.090;5.030;2022-08-30T07:01:06;44.95;41.83;63.22;;
72028;Laerm;59781;52.090;5.030;2022-08-30T07:03:34;44.64;41.10;64.34;;
72028;Laerm;59781;52.090;5.030;2022-08-30T07:05:59;45.07;42.02;63.58;;
72028;Laerm;59781;52.090;5.030;2022-08-30T07:08:25;44.69;41.36;64.33;;
72028;Laerm;59781;52.090;5.030;2022-08-30T07:10:52;44.90;41.00;72.55;;
72028;Laerm;59781;52.090;5.030;2022-08-30T07:13:19;43.70;40.25;54.08;;
72028;Laerm;59781;52.090;5.030;2022-08-30T07:15:47;43.56;40.68;55.87;;
72028;Laerm;59781;52.090;5.030;2022-08-30T07:18:13;43.33;39.89;59.74;;
72028;Laerm;59781;52.090;5.030;2022-08-30T07:21:06;43.31;40.18;62.42;;
72028;Laerm;59781;52.090;5.030;2022-08-30T07:23:32;43.47;40.38;59.75;;
72028;Laerm;59781;52.090;5.030;2022-08-30T07:25:57;42.77;40.20;58.09;;
72028;Laerm;59781;52.090;5.030;2022-08-30T07:28:23;43.19;40.40;47.58;;
72028;Laerm;59781;52.090;5.030;2022-08-30T07:30:49;45.61;40.35;71.57;;
72028;Laerm;59781;52.090;5.030;2022-08-30T07:33:15;43.88;40.04;54.87;;
72028;Laerm;59781;52.090;5.030;2022-08-30T07:35:40;44.24;39.70;62.89;;
72028;Laerm;59781;52.090;5.030;2022-08-30T07:38:06;54.56;40.37;81.03;;
72028;Laerm;59781;52.090;5.030;2022-08-30T07:40:32;61.90;40.35;91.13;;
72028;Laerm;59781;52.090;5.030;2022-08-30T07:42:57;46.66;39.70;72.28;;
72028;Laerm;59781;52.090;5.030;2022-08-30T07:45:26;46.96;40.24;71.04;;
72028;Laerm;59781;52.090;5.030;2022-08-30T07:47:52;47.17;39.63;70.29;;
72028;Laerm;59781;52.090;5.030;2022-08-30T07:50:17;46.36;39.60;68.06;;
72028;Laerm;59781;52.090;5.030;2022-08-30T07:52:43;45.58;38.86;67.11;;
72028;Laerm;59781;52.090;5.030;2022-08-30T07:55:09;48.05;39.27;69.94;;
72028;Laerm;59781;52.090;5.030;2022-08-30T07:57:35;44.11;39.07;65.66;;
72028;Laerm;59781;52.090;5.030;2022-08-30T08:00:01;44.07;39.03;62.36;;
72028;Laerm;59781;52.090;5.030;2022-08-30T08:02:37;49.89;39.29;80.88;;
72028;Laerm;59781;52.090;5.030;2022-08-30T08:05:05;42.77;39.82;63.79;;
72028;Laerm;59781;52.090;5.030;2022-08-30T08:07:33;49.54;39.56;69.31;;
72028;Laerm;59781;52.090;5.030;2022-08-30T08:09:59;50.32;38.99;64.29;;
72028;Laerm;59781;52.090;5.030;2022-08-30T08:12:26;50.69;40.02;73.95;;
72028;Laerm;59781;52.090;5.030;2022-08-30T08:14:52;51.41;39.41;67.36;;
72028;Laerm;59781;52.090;5.030;2022-08-30T08:17:18;50.23;40.00;68.55;;
72028;Laerm;59781;52.090;5.030;2022-08-30T08:19:43;53.30;39.19;82.79;;
72028;Laerm;59781;52.090;5.030;2022-08-30T08:22:09;50.28;39.73;81.40;;
72028;Laerm;59781;52.090;5.030;2022-08-30T08:24:36;51.79;39.38;65.83;;
72028;Laerm;59781;52.090;5.030;2022-08-30T08:27:01;49.32;39.34;64.98;;
72028;Laerm;59781;52.090;5.030;2022-08-30T08:29:27;50.59;38.85;65.77;;
72028;Laerm;59781;52.090;5.030;2022-08-30T08:31:54;51.42;39.61;67.63;;
72028;Laerm;59781;52.090;5.030;2022-08-30T08:34:21;50.88;37.38;67.63;;
72028;Laerm;59781;52.090;5.030;2022-08-30T08:36:50;50.79;38.62;66.93;;
72028;Laerm;59781;52.090;5.030;2022-08-30T08:39:16;50.32;38.49;66.49;;
72028;Laerm;59781;52.090;5.030;2022-08-30T08:42:04;50.51;39.19;67.45;;
72028;Laerm;59781;52.090;5.030;2022-08-30T08:45:05;49.49;38.59;67.04;;
72028;Laerm;59781;52.090;5.030;2022-08-30T08:47:59;47.48;38.48;63.28;;
72028;Laerm;59781;52.090;5.030;2022-08-30T08:50:26;51.43;39.74;68.71;;
72028;Laerm;59781;52.090;5.030;2022-08-30T08:53:12;51.04;38.41;67.62;;
72028;Laerm;59781;52.090;5.030;2022-08-30T08:56:02;50.31;38.66;64.98;;
72028;Laerm;59781;52.090;5.030;2022-08-30T09:01:08;51.28;38.38;68.21;;
72028;Laerm;59781;52.090;5.030;2022-08-30T09:03:35;51.07;38.54;64.09;;
72028;Laerm;59781;52.090;5.030;2022-08-30T09:06:14;50.89;38.37;61.97;;
72028;Laerm;59781;52.090;5.030;2022-08-30T09:08:44;50.09;38.36;67.40;;
72028;Laerm;59781;52.090;5.030;2022-08-30T09:11:22;52.59;39.07;68.31;;
72028;Laerm;59781;52.090;5.030;2022-08-30T09:13:48;49.65;38.48;63.57;;
72028;Laerm;59781;52.090;5.030;2022-08-30T09:22:31;51.86;38.87;72.19;;
72028;Laerm;59781;52.090;5.030;2022-08-30T09:27:38;44.03;38.54;60.56;;
72028;Laerm;59781;52.090;5.030;2022-08-30T09:30:08;45.25;38.94;61.72;;
72028;Laerm;59781;52.090;5.030;2022-08-30T09:32:43;45.74;39.86;64.43;;
72028;Laerm;59781;52.090;5.030;2022-08-30T09:35:23;42.52;38.88;55.71;;
72028;Laerm;59781;52.090;5.030;2022-08-30T09:38:02;43.50;38.53;67.80;;
72028;Laerm;59781;52.090;5.030;2022-08-30T09:40:36;44.34;38.41;57.09;;
72028;Laerm;59781;52.090;5.030;2022-08-30T09:45:39;41.61;38.27;50.83;;
72028;Laerm;59781;52.090;5.030;2022-08-30T09:48:36;42.04;38.23;58.82;;
72028;Laerm;59781;52.090;5.030;2022-08-30T09:51:14;43.27;39.35;62.96;;
72028;Laerm;59781;52.090;5.030;2022-08-30T10:02:11;49.43;38.81;67.73;;
72028;Laerm;59781;52.090;5.030;2022-08-30T10:05:03;45.17;40.46;57.40;;
72028;Laerm;59781;52.090;5.030;2022-08-30T10:10:36;44.75;39.08;66.97;;
72028;Laerm;59781;52.090;5.030;2022-08-30T10:22:11;46.30;39.62;63.19;;
72028;Laerm;59781;52.090;5.030;2022-08-30T10:24:48;47.30;39.32;58.00;;
72028;Laerm;59781;52.090;5.030;2022-08-30T10:27:30;59.53;38.75;75.68;;
72028;Laerm;59781;52.090;5.030;2022-08-30T10:30:13;44.24;39.06;58.66;;
72028;Laerm;59781;52.090;5.030;2022-08-30T10:33:07;42.54;38.83;59.57;;
72028;Laerm;59781;52.090;5.030;2022-08-30T10:35:43;41.91;38.93;56.79;;
72028;Laerm;59781;52.090;5.030;2022-08-30T10:38:34;42.90;39.00;63.38;;
72028;Laerm;59781;52.090;5.030;2022-08-30T10:41:32;41.96;38.43;49.86;;
72028;Laerm;59781;52.090;5.030;2022-08-30T10:44:05;41.64;37.94;51.70;;
72028;Laerm;59781;52.090;5.030;2022-08-30T10:49:38;43.12;38.19;64.33;;
72028;Laerm;59781;52.090;5.030;2022-08-30T10:54:48;42.87;38.56;53.46;;
72028;Laerm;59781;52.090;5.030;2022-08-30T10:57:16;42.32;38.68;52.87;;
72028;Laerm;59781;52.090;5.030;2022-08-30T10:59:51;47.06;38.10;69.07;;
72028;Laerm;59781;52.090;5.030;2022-08-30T11:02:43;41.99;37.77;49.46;;
72028;Laerm;59781;52.090;5.030;2022-08-30T11:13:40;43.67;38.99;64.71;;
72028;Laerm;59781;52.090;5.030;2022-08-30T11:16:11;42.94;39.20;52.60;;
72028;Laerm;59781;52.090;5.030;2022-08-30T11:18:49;43.95;38.67;50.69;;
72028;Laerm;59781;52.090;5.030;2022-08-30T11:21:39;43.95;38.99;54.10;;
72028;Laerm;59781;52.090;5.030;2022-08-30T11:24:15;42.61;38.74;54.15;;
72028;Laerm;59781;52.090;5.030;2022-08-30T11:32:02;42.51;38.39;51.04;;
72028;Laerm;59781;52.090;5.030;2022-08-30T11:42:43;44.39;39.22;58.64;;
72028;Laerm;59781;52.090;5.030;2022-08-30T11:45:43;45.35;38.94;72.55;;
72028;Laerm;59781;52.090;5.030;2022-08-30T11:48:43;44.94;38.98;56.78;;
72028;Laerm;59781;52.090;5.030;2022-08-30T11:57:47;42.36;38.74;50.80;;
72028;Laerm;59781;52.090;5.030;2022-08-30T12:00:40;43.12;39.02;58.69;;
72028;Laerm;59781;52.090;5.030;2022-08-30T12:10:53;42.47;38.73;57.28;;
72028;Laerm;59781;52.090;5.030;2022-08-30T12:16:35;42.52;38.62;61.53;;
72028;Laerm;59781;52.090;5.030;2022-08-30T12:19:25;42.72;38.78;55.76;;
72028;Laerm;59781;52.090;5.030;2022-08-30T12:21:58;42.55;39.36;54.04;;
72028;Laerm;59781;52.090;5.030;2022-08-30T12:24:33;47.20;40.07;59.57;;
72028;Laerm;59781;52.090;5.030;2022-08-30T12:27:23;43.05;38.88;64.09;;
72028;Laerm;59781;52.090;5.030;2022-08-30T12:29:57;44.15;39.15;56.13;;
72028;Laerm;59781;52.090;5.030;2022-08-30T12:32:24;42.39;38.18;55.64;;
72028;Laerm;59781;52.090;5.030;2022-08-30T12:34:55;44.36;39.37;70.65;;
72028;Laerm;59781;52.090;5.030;2022-08-30T12:37:30;43.34;39.16;59.63;;
72028;Laerm;59781;52.090;5.030;2022-08-30T12:42:32;44.83;39.03;61.62;;
72028;Laerm;59781;52.090;5.030;2022-08-30T12:45:11;52.27;37.86;84.70;;
72028;Laerm;59781;52.090;5.030;2022-08-30T12:47:49;41.77;38.18;63.87;;
72028;Laerm;59781;52.090;5.030;2022-08-30T12:50:34;41.30;38.00;58.16;;
72028;Laerm;59781;52.090;5.030;2022-08-30T12:53:07;42.55;38.30;67.33;;
72028;Laerm;59781;52.090;5.030;2022-08-30T12:55:59;41.09;38.19;56.92;;
72028;Laerm;59781;52.090;5.030;2022-08-30T12:58:49;42.40;38.08;58.70;;
72028;Laerm;59781;52.090;5.030;2022-08-30T13:01:44;42.92;37.82;53.44;;
72028;Laerm;59781;52.090;5.030;2022-08-30T13:04:26;41.63;38.00;62.59;;
72028;Laerm;59781;52.090;5.030;2022-08-30T13:06:59;44.01;37.43;61.47;;
72028;Laerm;59781;52.090;5.030;2022-08-30T13:09:41;41.65;38.54;55.26;;
72028;Laerm;59781;52.090;5.030;2022-08-30T13:12:28;42.93;38.10;56.31;;
72028;Laerm;59781;52.090;5.030;2022-08-30T13:15:17;41.77;38.63;45.99;;
72028;Laerm;59781;52.090;5.030;2022-08-30T13:17:44;42.00;38.29;54.77;;
72028;Laerm;59781;52.090;5.030;2022-08-30T13:23:06;45.45;38.74;59.21;;
72028;Laerm;59781;52.090;5.030;2022-08-30T13:25:34;41.66;37.81;62.47;;
72028;Laerm;59781;52.090;5.030;2022-08-30T13:28:02;41.45;37.98;66.02;;
72028;Laerm;59781;52.090;5.030;2022-08-30T13:30:31;41.90;38.39;56.35;;
72028;Laerm;59781;52.090;5.030;2022-08-30T13:32:57;41.69;38.21;54.60;;
72028;Laerm;59781;52.090;5.030;2022-08-30T13:35:23;42.93;38.03;53.05;;
72028;Laerm;59781;52.090;5.030;2022-08-30T13:37:49;45.09;39.18;63.03;;
72028;Laerm;59781;52.090;5.030;2022-08-30T13:40:15;47.73;38.68;60.80;;
72028;Laerm;59781;52.090;5.030;2022-08-30T13:42:42;43.11;38.50;60.06;;
72028;Laerm;59781;52.090;5.030;2022-08-30T13:45:11;43.51;39.02;56.93;;
72028;Laerm;59781;52.090;5.030;2022-08-30T13:47:38;41.67;38.37;52.38;;
72028;Laerm;59781;52.090;5.030;2022-08-30T13:50:05;44.58;38.77;57.22;;
72028;Laerm;59781;52.090;5.030;2022-08-30T13:52:32;40.92;37.55;46.03;;
72028;Laerm;59781;52.090;5.030;2022-08-30T13:54:57;42.87;37.96;64.89;;
72028;Laerm;59781;52.090;5.030;2022-08-30T13:57:28;41.30;37.82;54.81;;
72028;Laerm;59781;52.090;5.030;2022-08-30T13:59:54;40.78;37.16;53.51;;
72028;Laerm;59781;52.090;5.030;2022-08-30T14:02:20;50.05;36.90;69.93;;
72028;Laerm;59781;52.090;5.030;2022-08-30T14:04:46;41.34;37.62;65.32;;
72028;Laerm;59781;52.090;5.030;2022-08-30T14:07:11;41.81;38.01;54.14;;
72028;Laerm;59781;52.090;5.030;2022-08-30T14:09:37;42.00;38.05;58.73;;
72028;Laerm;59781;52.090;5.030;2022-08-30T14:12:04;40.99;37.28;49.43;;
72028;Laerm;59781;52.090;5.030;2022-08-30T14:14:29;40.32;37.74;50.83;;
72028;Laerm;59781;52.090;5.030;2022-08-30T14:16:55;42.17;37.75;53.56;;
72028;Laerm;59781;52.090;5.030;2022-08-30T14:19:21;41.94;37.79;50.91;;
72028;Laerm;59781;52.090;5.030;2022-08-30T14:21:47;41.35;37.78;55.20;;
72028;Laerm;59781;52.090;5.030;2022-08-30T14:24:13;43.46;37.90;52.78;;
72028;Laerm;59781;52.090;5.030;2022-08-30T14:26:44;41.30;37.92;49.45;;
72028;Laerm;59781;52.090;5.030;2022-08-30T14:29:23;41.77;37.45;65.23;;
72028;Laerm;59781;52.090;5.030;2022-08-30T14:31:51;40.89;37.65;48.73;;
72028;Laerm;59781;52.090;5.030;2022-08-30T14:34:17;41.81;38.35;64.29;;
72028;Laerm;59781;52.090;5.030;2022-08-30T14:36:45;42.13;37.64;70.14;;
72028;Laerm;59781;52.090;5.030;2022-08-30T14:39:15;43.94;38.02;57.76;;
72028;Laerm;59781;52.090;5.030;2022-08-30T14:41:53;47.18;38.21;63.70;;
72028;Laerm;59781;52.090;5.030;2022-08-30T14:44:21;40.89;37.71;49.45;;
72028;Laerm;59781;52.090;5.030;2022-08-30T14:46:47;41.71;37.79;59.99;;
72028;Laerm;59781;52.090;5.030;2022-08-30T14:49:15;40.83;37.60;52.40;;
72028;Laerm;59781;52.090;5.030;2022-08-30T14:51:41;41.15;37.77;54.59;;
72028;Laerm;59781;52.090;5.030;2022-08-30T14:54:11;42.22;38.20;64.60;;
72028;Laerm;59781;52.090;5.030;2022-08-30T14:56:39;41.58;37.83;51.08;;
72028;Laerm;59781;52.090;5.030;2022-08-30T14:59:05;41.34;38.28;48.80;;
72028;Laerm;59781;52.090;5.030;2022-08-30T15:01:32;41.82;38.62;49.96;;
72028;Laerm;59781;52.090;5.030;2022-08-30T15:03:59;41.60;37.61;56.84;;
72028;Laerm;59781;52.090;5.030;2022-08-30T15:06:25;41.36;38.14;47.19;;
72028;Laerm;59781;52.090;5.030;2022-08-30T15:08:52;43.66;38.23;63.42;;
72028;Laerm;59781;52.090;5.030;2022-08-30T15:11:22;41.77;38.40;56.01;;
72028;Laerm;59781;52.090;5.030;2022-08-30T15:13:48;41.15;37.66;52.21;;
72028;Laerm;59781;52.090;5.030;2022-08-30T15:16:26;42.20;38.00;55.09;;
72028;Laerm;59781;52.090;5.030;2022-08-30T15:18:53;42.86;38.72;50.21;;
72028;Laerm;59781;52.090;5.030;2022-08-30T15:21:33;41.63;38.04;50.36;;
72028;Laerm;59781;52.090;5.030;2022-08-30T15:24:01;41.69;38.04;57.83;;
72028;Laerm;59781;52.090;5.030;2022-08-30T15:26:28;41.80;38.55;50.10;;